Time;durP1;ratioP1;P1;durP2;ratioP2;P2;SDS_P1;SDS_P2;PMS_P1;PMS_P2;Temp;Humidity;BMP_temperature;BMP_pressure;BME280_temperature;BME280_humidity;BME280_pressure;Samples;Min_cycle;Max_cycle;Signal;HPM_P1;HPM_P2
2021/05/04 00:00:06;;;;;;;1.50;1.23;;;12.60;68.90;;;;;;5005180;28;20460;-78
2021/05/04 00:02:32;;;;;;;1.50;1.00;;;12.60;69.00;;;;;;5006688;28;20492;-81
2021/05/04 00:04:58;;;;;;;1.50;1.00;;;12.60;69.00;;;;;;5008792;28;20467;-78
2021/05/04 00:07:25;;;;;;;1.47;1.03;;;12.60;69.00;;;;;;5024753;28;20540;-80
2021/05/04 00:09:52;;;;;;;1.47;1.00;;;12.60;68.90;;;;;;5008335;28;20559;-82
2021/05/04 00:12:18;;;;;;;1.47;1.00;;;12.60;68.90;;;;;;5012706;28;20529;-81
2021/05/04 00:14:44;;;;;;;1.47;1.00;;;12.70;68.90;;;;;;5005088;28;20488;-80
2021/05/04 00:17:10;;;;;;;1.43;1.00;;;12.70;68.90;;;;;;5003533;28;20472;-81
2021/05/04 00:19:39;;;;;;;1.43;1.00;;;12.70;68.90;;;;;;5014581;28;20490;-79
2021/05/04 00:22:05;;;;;;;1.50;1.00;;;12.70;68.90;;;;;;5005347;28;20562;-83
2021/05/04 00:24:32;;;;;;;1.47;1.00;;;12.70;69.00;;;;;;5012422;28;20480;-83
2021/05/04 00:26:59;;;;;;;1.50;1.00;;;12.60;69.10;;;;;;5010608;28;20495;-82
2021/05/04 00:29:25;;;;;;;1.50;1.10;;;12.60;69.20;;;;;;5013314;28;20492;-80
2021/05/04 00:31:51;;;;;;;1.40;1.00;;;12.60;69.30;;;;;;5007015;28;20490;-80
2021/05/04 00:34:18;;;;;;;3.00;2.80;;;12.60;69.40;;;;;;5016421;28;20492;-79
2021/05/04 00:36:45;;;;;;;1.50;1.00;;;12.60;69.30;;;;;;5010847;28;21049;-80
2021/05/04 00:39:11;;;;;;;1.50;1.00;;;12.60;69.50;;;;;;5018643;28;20464;-81
2021/05/04 00:41:38;;;;;;;1.47;1.00;;;12.60;69.50;;;;;;5010553;28;20479;-80
2021/05/04 00:44:05;;;;;;;1.50;1.10;;;12.60;69.50;;;;;;5012165;28;20526;-81
2021/05/04 00:46:31;;;;;;;1.47;1.00;;;12.60;69.40;;;;;;5010959;28;20870;-83
2021/05/04 00:48:57;;;;;;;1.50;1.00;;;12.50;69.60;;;;;;5020934;28;20991;-81
2021/05/04 00:51:24;;;;;;;1.50;1.00;;;12.60;69.60;;;;;;5003200;28;20606;-81
2021/05/04 00:53:50;;;;;;;1.43;1.00;;;12.50;69.70;;;;;;5020998;28;20518;-80
2021/05/04 00:56:18;;;;;;;1.47;0.90;;;12.60;69.70;;;;;;5006838;28;20483;-80
2021/05/04 00:58:48;;;;;;;1.73;1.63;;;12.60;69.70;;;;;;5013425;28;20552;-81
2021/05/04 01:01:14;;;;;;;1.50;1.00;;;12.60;69.90;;;;;;5002118;28;20474;-83
2021/05/04 01:03:41;;;;;;;1.40;1.00;;;12.60;70.00;;;;;;5018949;28;20550;-83
2021/05/04 01:06:08;;;;;;;1.47;1.00;;;12.60;69.90;;;;;;5006576;28;20487;-84
2021/05/04 01:08:34;;;;;;;1.40;1.00;;;12.60;70.00;;;;;;5030339;28;20833;-81
2021/05/04 01:11:00;;;;;;;1.47;1.00;;;12.60;70.00;;;;;;5008497;28;20479;-80
2021/05/04 01:13:27;;;;;;;1.50;1.10;;;12.60;69.90;;;;;;5026909;28;21014;-80
2021/05/04 01:15:54;;;;;;;1.50;1.00;;;12.60;70.00;;;;;;5006655;28;20767;-79
2021/05/04 01:18:20;;;;;;;1.43;1.00;;;12.60;70.00;;;;;;5020231;28;20464;-82
2021/05/04 01:20:50;;;;;;;1.47;1.00;;;12.60;69.90;;;;;;5006915;28;20509;-79
2021/05/04 01:23:17;;;;;;;1.50;1.00;;;12.60;70.00;;;;;;5016066;28;20853;-80
2021/05/04 01:25:43;;;;;;;1.50;1.00;;;12.60;69.90;;;;;;5009319;28;20552;-80
2021/05/04 01:28:10;;;;;;;1.43;1.00;;;12.60;69.70;;;;;;5010926;28;20857;-81
2021/05/04 01:30:36;;;;;;;1.50;1.00;;;12.60;69.70;;;;;;5016742;28;20500;-80
2021/05/04 01:33:02;;;;;;;1.40;0.93;;;12.70;69.70;;;;;;5014447;28;20871;-80
2021/05/04 01:35:29;;;;;;;1.50;1.00;;;12.70;69.60;;;;;;5010598;28;20722;-82
2021/05/04 01:37:57;;;;;;;1.50;1.00;;;12.70;69.60;;;;;;5012310;28;20484;-80
2021/05/04 01:40:23;;;;;;;1.50;1.00;;;12.70;69.50;;;;;;5014716;28;20518;-81
2021/05/04 01:42:50;;;;;;;1.43;1.00;;;12.70;69.50;;;;;;5016425;28;20626;-83
2021/05/04 01:45:17;;;;;;;1.47;1.00;;;12.70;69.20;;;;;;5003545;28;20461;-81
2021/05/04 01:47:44;;;;;;;1.47;1.00;;;12.70;69.00;;;;;;4999292;28;20576;-78
2021/05/04 01:50:11;;;;;;;1.47;0.90;;;12.80;69.00;;;;;;5007751;28;20476;-81
2021/05/04 01:52:38;;;;;;;1.43;0.90;;;12.80;69.00;;;;;;5009617;28;20502;-81
2021/05/04 01:55:11;;;;;;;1.50;1.00;;;12.80;68.40;;;;;;5016250;28;20489;-80
2021/05/04 01:57:38;;;;;;;1.50;1.00;;;12.90;68.10;;;;;;5015592;28;21004;-80
2021/05/04 02:00:07;;;;;;;1.50;1.00;;;12.90;68.00;;;;;;5015163;28;20464;-82
2021/05/04 02:02:33;;;;;;;1.43;0.90;;;13.00;67.80;;;;;;5017076;28;20495;-81
2021/05/04 02:04:59;;;;;;;1.50;1.10;;;13.00;67.50;;;;;;5018636;28;20457;-81
2021/05/04 02:07:26;;;;;;;1.40;0.97;;;13.00;67.30;;;;;;5002916;28;20551;-83
2021/05/04 02:09:53;;;;;;;1.40;1.00;;;13.10;66.40;;;;;;5015330;28;20482;-82
2021/05/04 02:12:20;;;;;;;1.50;1.00;;;13.10;66.00;;;;;;5008721;28;20981;-80
2021/05/04 02:14:46;;;;;;;1.50;1.00;;;13.20;65.90;;;;;;5014030;28;20452;-79
2021/05/04 02:17:13;;;;;;;1.40;1.00;;;13.20;66.70;;;;;;5018678;28;20479;-81
2021/05/04 02:19:39;;;;;;;1.50;1.00;;;13.10;67.20;;;;;;5015255;28;20460;-79
2021/05/04 02:22:05;;;;;;;1.50;1.00;;;13.10;67.10;;;;;;5008798;28;20526;-79
2021/05/04 02:24:32;;;;;;;1.43;1.00;;;13.00;70.60;;;;;;5011715;28;20836;-78
2021/05/04 02:26:58;;;;;;;1.43;1.00;;;12.80;71.70;;;;;;5007487;28;20534;-80
2021/05/04 02:29:25;;;;;;;1.47;1.00;;;12.60;75.00;;;;;;5016063;28;20465;-80
2021/05/04 02:31:51;;;;;;;1.50;1.10;;;12.40;76.50;;;;;;5003883;28;20535;-81
2021/05/04 02:34:18;;;;;;;1.50;1.03;;;12.20;78.30;;;;;;5019603;28;20464;-78
2021/05/04 02:36:44;;;;;;;1.50;1.00;;;12.00;79.60;;;;;;4998538;28;20535;-80
2021/05/04 02:39:11;;;;;;;1.50;0.93;;;11.80;81.00;;;;;;5012298;28;20461;-82
2021/05/04 02:41:37;;;;;;;1.47;1.00;;;11.70;81.90;;;;;;5009747;28;20483;-79
2021/05/04 02:44:05;;;;;;;1.47;1.00;;;11.60;82.30;;;;;;5018435;28;20488;-79
2021/05/04 02:46:33;;;;;;;1.50;1.10;;;11.50;82.50;;;;;;5002142;28;21033;-80
2021/05/04 02:49:00;;;;;;;1.43;1.00;;;11.40;83.20;;;;;;5014624;28;20456;-81
2021/05/04 02:51:26;;;;;;;1.47;1.00;;;11.30;84.20;;;;;;5000016;28;20554;-79
2021/05/04 02:53:53;;;;;;;1.50;1.00;;;11.20;85.30;;;;;;5009875;28;20484;-79
2021/05/04 02:56:20;;;;;;;1.50;1.10;;;11.10;86.20;;;;;;4997436;28;20532;-79
2021/05/04 02:58:46;;;;;;;1.47;1.07;;;11.00;86.50;;;;;;5016409;28;20474;-78
2021/05/04 03:01:14;;;;;;;1.47;1.00;;;10.90;86.60;;;;;;5001088;28;20486;-80
2021/05/04 03:03:41;;;;;;;1.47;1.10;;;10.80;87.70;;;;;;5005327;28;20507;-79
2021/05/04 03:06:07;;;;;;;1.43;1.00;;;10.70;88.80;;;;;;4997700;28;20460;-77
2021/05/04 03:08:34;;;;;;;1.47;1.00;;;10.60;88.90;;;;;;5008102;28;20464;-79
2021/05/04 03:11:00;;;;;;;1.50;1.07;;;10.60;89.70;;;;;;4998111;28;20487;-78
2021/05/04 03:13:28;;;;;;;1.47;1.00;;;10.50;90.40;;;;;;5006803;28;20759;-79
2021/05/04 03:15:55;;;;;;;1.47;1.03;;;10.40;90.00;;;;;;4999940;28;20468;-78
2021/05/04 03:18:21;;;;;;;1.47;1.10;;;10.40;90.00;;;;;;5021423;28;20494;-79
2021/05/04 03:20:49;;;;;;;1.50;1.10;;;10.30;90.30;;;;;;4999970;28;20483;-79
2021/05/04 03:23:16;;;;;;;1.47;1.10;;;10.30;90.50;;;;;;5024506;28;20588;-79
2021/05/04 03:25:42;;;;;;;1.50;1.00;;;10.30;90.70;;;;;;5016255;28;20473;-78
2021/05/04 03:28:09;;;;;;;1.50;1.20;;;10.20;91.20;;;;;;5004101;28;20490;-78
2021/05/04 03:30:35;;;;;;;2.33;2.13;;;10.20;91.00;;;;;;5002672;28;20475;-78
2021/05/04 03:33:02;;;;;;;1.50;1.10;;;10.20;91.60;;;;;;5000587;28;20493;-78
2021/05/04 03:35:28;;;;;;;1.50;1.10;;;10.10;91.90;;;;;;4996025;28;20469;-78
2021/05/04 03:37:58;;;;;;;1.50;1.13;;;10.10;92.10;;;;;;5003692;28;20484;-78
2021/05/04 03:40:25;;;;;;;1.47;1.00;;;10.00;92.30;;;;;;5011685;28;20470;-78
2021/05/04 03:42:51;;;;;;;1.47;1.10;;;10.00;92.60;;;;;;5007154;28;20537;-77
2021/05/04 03:45:18;;;;;;;1.50;1.00;;;10.00;92.30;;;;;;4999775;28;20467;-77
2021/05/04 03:47:45;;;;;;;1.47;1.10;;;10.00;92.10;;;;;;5004475;28;20486;-78
2021/05/04 03:50:14;;;;;;;1.50;1.20;;;9.90;92.70;;;;;;5004473;28;20914;-77
2021/05/04 03:52:40;;;;;;;1.50;1.00;;;9.90;92.60;;;;;;5006020;28;20975;-78
2021/05/04 03:55:09;;;;;;;1.50;1.10;;;9.90;92.30;;;;;;5013437;28;20514;-77
2021/05/04 03:57:35;;;;;;;1.50;1.10;;;9.90;92.80;;;;;;5009873;28;20865;-78
2021/05/04 04:00:03;;;;;;;1.60;1.43;;;9.90;92.70;;;;;;5007310;28;20472;-78
2021/05/04 04:02:29;;;;;;;1.50;1.10;;;9.90;92.70;;;;;;5012264;28;20796;-79
2021/05/04 04:04:55;;;;;;;1.50;1.10;;;9.80;92.60;;;;;;5013633;28;20464;-79
2021/05/04 04:07:21;;;;;;;1.47;1.10;;;9.80;92.40;;;;;;5013602;28;20616;-79
2021/05/04 04:09:48;;;;;;;1.50;1.10;;;9.80;92.60;;;;;;5010597;28;20466;-80
2021/05/04 04:12:15;;;;;;;1.50;1.10;;;9.70;92.70;;;;;;5013340;28;20808;-77
2021/05/04 04:14:41;;;;;;;1.50;1.10;;;9.70;92.20;;;;;;5017079;28;20468;-79
2021/05/04 04:17:07;;;;;;;1.50;1.10;;;9.70;92.20;;;;;;5013772;28;20490;-79
2021/05/04 04:19:34;;;;;;;1.50;1.00;;;9.70;92.40;;;;;;5017973;28;20468;-78
2021/05/04 04:22:00;;;;;;;1.50;1.10;;;9.70;91.10;;;;;;5009060;28;20479;-78
2021/05/04 04:24:26;;;;;;;1.43;1.10;;;9.60;91.70;;;;;;5012455;28;20526;-79
2021/05/04 04:26:53;;;;;;;1.50;1.20;;;9.60;91.90;;;;;;5007680;28;20487;-76
2021/05/04 04:29:20;;;;;;;1.50;1.10;;;9.60;91.50;;;;;;5014139;28;20907;-80
2021/05/04 04:31:46;;;;;;;1.50;1.20;;;9.60;91.30;;;;;;5009483;28;20493;-78
2021/05/04 04:34:12;;;;;;;1.50;1.20;;;9.60;91.10;;;;;;5015951;28;20491;-77
2021/05/04 04:36:39;;;;;;;1.50;1.10;;;9.60;91.10;;;;;;5008348;28;20479;-77
2021/05/04 04:39:06;;;;;;;1.50;1.10;;;9.60;91.20;;;;;;5016422;28;20456;-77
2021/05/04 04:41:32;;;;;;;1.50;1.17;;;9.60;91.30;;;;;;5007097;28;20491;-77
2021/05/04 04:43:58;;;;;;;1.50;1.20;;;9.60;91.30;;;;;;5020004;28;20483;-78
2021/05/04 04:46:39;;;;;;;1.50;1.10;;;9.60;91.00;;;;;;5004446;28;20479;-76
2021/05/04 04:49:05;;;;;;;1.50;1.20;;;9.60;90.80;;;;;;5008226;28;20467;-77
2021/05/04 04:51:32;;;;;;;1.50;1.13;;;9.60;90.90;;;;;;5010752;28;20489;-79
2021/05/04 04:53:58;;;;;;;1.50;1.20;;;9.60;90.90;;;;;;5017206;28;20484;-78
2021/05/04 04:56:25;;;;;;;1.50;1.03;;;9.70;90.80;;;;;;5004823;28;20540;-76
2021/05/04 04:58:51;;;;;;;1.50;1.10;;;9.60;91.10;;;;;;5022762;28;20482;-78
2021/05/04 05:01:17;;;;;;;1.43;1.10;;;9.70;90.70;;;;;;5005171;28;21024;-77
2021/05/04 05:03:44;;;;;;;1.50;1.10;;;9.70;90.50;;;;;;5024781;28;20483;-78
2021/05/04 05:06:11;;;;;;;1.50;1.20;;;9.70;91.10;;;;;;5004128;28;21315;-76
2021/05/04 05:08:37;;;;;;;1.50;1.00;;;9.70;91.00;;;;;;5020452;28;21012;-78
2021/05/04 05:11:03;;;;;;;1.50;1.10;;;9.70;91.10;;;;;;5005815;28;20526;-78
2021/05/04 05:13:29;;;;;;;1.50;1.10;;;9.70;90.90;;;;;;5018504;28;20503;-79
2021/05/04 05:15:56;;;;;;;1.50;1.10;;;9.70;91.20;;;;;;5217520;23;20495;-80
2021/05/04 05:18:22;;;;;;;1.50;1.17;;;9.70;90.90;;;;;;5049365;28;20753;-81
2021/05/04 05:20:49;;;;;;;1.50;1.10;;;9.70;91.20;;;;;;5019962;28;20486;-80
2021/05/04 05:23:17;;;;;;;1.47;1.10;;;9.70;91.10;;;;;;5041609;28;20467;-80
2021/05/04 05:25:43;;;;;;;1.50;1.10;;;9.70;91.30;;;;;;5020850;28;20846;-79
2021/05/04 05:28:10;;;;;;;1.50;1.10;;;9.70;91.70;;;;;;4993056;28;20484;-80
2021/05/04 05:30:36;;;;;;;1.50;1.10;;;9.70;91.30;;;;;;5011376;28;20471;-82
2021/05/04 05:33:03;;;;;;;1.50;1.10;;;9.70;91.50;;;;;;4990297;28;20751;-78
2021/05/04 05:35:29;;;;;;;1.50;1.10;;;9.70;91.50;;;;;;4986054;28;20489;-80
2021/05/04 05:37:57;;;;;;;1.50;1.10;;;9.70;91.70;;;;;;5000713;28;20487;-82
2021/05/04 05:40:23;;;;;;;1.47;1.10;;;9.80;91.70;;;;;;4983292;28;20595;-80
2021/05/04 05:42:49;;;;;;;1.50;1.20;;;9.80;91.40;;;;;;4986009;28;20484;-79
2021/05/04 05:45:16;;;;;;;1.50;1.10;;;9.80;91.50;;;;;;5005113;28;20484;-80
2021/05/04 05:47:42;;;;;;;1.50;1.20;;;9.80;91.70;;;;;;5011532;28;20997;-78
2021/05/04 05:50:09;;;;;;;1.50;1.30;;;9.70;91.80;;;;;;5009901;28;21036;-80
2021/05/04 05:52:35;;;;;;;1.50;1.10;;;9.80;91.90;;;;;;5006105;28;20508;-78
2021/05/04 05:55:03;;;;;;;1.47;1.10;;;9.80;92.00;;;;;;5010386;28;20788;-78
2021/05/04 05:57:29;;;;;;;1.50;1.10;;;9.80;92.20;;;;;;5002656;28;21014;-78
2021/05/04 05:59:55;;;;;;;1.43;1.10;;;9.80;92.30;;;;;;5011922;28;20464;-79
2021/05/04 06:02:22;;;;;;;1.50;1.10;;;9.90;92.40;;;;;;5010071;28;20480;-76
2021/05/04 06:04:48;;;;;;;1.40;1.10;;;9.90;92.30;;;;;;5008297;28;20567;-79
2021/05/04 06:07:14;;;;;;;1.50;1.10;;;10.00;92.30;;;;;;5001468;28;20494;-78
2021/05/04 06:09:41;;;;;;;1.47;1.10;;;10.00;92.30;;;;;;5004199;28;20508;-79
2021/05/04 06:12:08;;;;;;;1.50;1.13;;;10.10;92.00;;;;;;5004567;28;20490;-80
2021/05/04 06:14:35;;;;;;;1.50;1.10;;;10.20;91.90;;;;;;5003000;28;20495;-81
2021/05/04 06:17:01;;;;;;;1.50;1.17;;;10.20;92.10;;;;;;5002092;28;20480;-80
2021/05/04 06:19:27;;;;;;;1.50;1.10;;;10.20;91.60;;;;;;5010783;28;20476;-78
2021/05/04 06:21:53;;;;;;;1.50;1.10;;;10.30;91.50;;;;;;5001666;28;20585;-79
2021/05/04 06:24:20;;;;;;;1.50;1.00;;;10.30;91.20;;;;;;5007140;28;20469;-80
2021/05/04 06:26:46;;;;;;;1.47;1.10;;;10.30;91.60;;;;;;5003678;28;20565;-79
2021/05/04 06:29:13;;;;;;;1.50;1.23;;;10.40;91.20;;;;;;5004353;28;20472;-77
2021/05/04 06:31:39;;;;;;;1.47;1.03;;;10.50;91.50;;;;;;5006188;28;20586;-78
2021/05/04 06:34:09;;;;;;;1.47;1.07;;;10.50;91.20;;;;;;5010324;28;20533;-81
2021/05/04 06:36:35;;;;;;;1.47;1.10;;;10.60;90.80;;;;;;5004698;28;20814;-81
2021/05/04 06:39:02;;;;;;;1.43;1.00;;;10.60;91.20;;;;;;5010878;28;20470;-79
2021/05/04 06:41:34;;;;;;;1.50;1.10;;;10.60;91.60;;;;;;5006575;28;20486;-81
2021/05/04 06:44:01;;;;;;;1.50;1.10;;;10.50;91.40;;;;;;5014431;28;21058;-80
2021/05/04 06:46:29;;;;;;;1.47;1.00;;;10.60;91.90;;;;;;5006985;28;20478;-82
2021/05/04 06:48:55;;;;;;;1.50;1.10;;;10.60;91.60;;;;;;5010678;28;21144;-80
2021/05/04 06:51:22;;;;;;;1.50;1.10;;;10.60;91.80;;;;;;4997351;28;20577;-79
2021/05/04 06:53:48;;;;;;;1.50;1.20;;;10.60;92.00;;;;;;5011700;28;20483;-80
2021/05/04 06:56:15;;;;;;;1.50;1.10;;;10.60;91.80;;;;;;4998547;28;20502;-79
2021/05/04 06:58:41;;;;;;;1.50;1.00;;;10.60;91.80;;;;;;5012848;28;20468;-78
2021/05/04 07:01:07;;;;;;;1.47;1.00;;;10.60;91.60;;;;;;5000821;28;20509;-78
2021/05/04 07:03:35;;;;;;;1.50;1.10;;;10.60;91.60;;;;;;5015859;28;20468;-78
2021/05/04 07:06:01;;;;;;;1.50;1.10;;;10.70;91.70;;;;;;4997539;28;20885;-77
2021/05/04 07:08:27;;;;;;;1.50;1.10;;;10.70;91.30;;;;;;5013887;28;20468;-80
2021/05/04 07:10:54;;;;;;;1.50;1.07;;;10.80;91.30;;;;;;4995631;28;20536;-77
2021/05/04 07:13:20;;;;;;;1.50;1.10;;;10.80;91.20;;;;;;5018185;28;20548;-80
2021/05/04 07:15:46;;;;;;;1.50;1.00;;;10.90;91.30;;;;;;5000530;28;21018;-79
2021/05/04 07:18:13;;;;;;;1.50;1.10;;;11.00;91.30;;;;;;5018049;28;20499;-79
2021/05/04 07:20:41;;;;;;;1.50;1.10;;;11.10;91.10;;;;;;5011084;28;20649;-81
2021/05/04 07:23:09;;;;;;;1.47;1.10;;;11.10;90.80;;;;;;5007590;28;20484;-80
2021/05/04 07:25:36;;;;;;;1.50;1.20;;;11.20;90.80;;;;;;5008979;28;20499;-78
2021/05/04 07:28:03;;;;;;;1.47;1.00;;;11.20;90.70;;;;;;5009265;28;20533;-81
2021/05/04 07:30:31;;;;;;;1.47;1.00;;;11.10;90.90;;;;;;5007259;28;20561;-78
2021/05/04 07:32:57;;;;;;;1.43;1.00;;;11.20;90.80;;;;;;5014294;28;21029;-81
2021/05/04 07:35:27;;;;;;;1.50;1.00;;;11.10;91.60;;;;;;5007324;28;20948;-80
2021/05/04 07:37:55;;;;;;;1.50;1.10;;;11.20;91.50;;;;;;5003086;28;20543;-79
2021/05/04 07:40:22;;;;;;;1.50;1.10;;;11.20;91.50;;;;;;5004379;28;20468;-80
2021/05/04 07:42:49;;;;;;;1.43;1.00;;;11.30;91.40;;;;;;5005552;28;21032;-77
2021/05/04 07:45:15;;;;;;;1.50;1.20;;;11.40;91.30;;;;;;5006329;28;20886;-82
2021/05/04 07:47:42;;;;;;;1.47;1.00;;;11.40;91.00;;;;;;5016174;28;20487;-80
2021/05/04 07:50:11;;;;;;;1.47;1.00;;;11.40;91.10;;;;;;4993773;28;20464;-81
2021/05/04 07:52:38;;;;;;;1.50;1.10;;;11.40;90.90;;;;;;5008202;28;20543;-81
2021/05/04 07:55:06;;;;;;;1.47;1.00;;;11.50;90.70;;;;;;4999986;28;20554;-79
2021/05/04 07:57:32;;;;;;;1.50;1.10;;;11.50;91.20;;;;;;5010435;28;20533;-79
2021/05/04 07:59:59;;;;;;;1.50;0.90;;;11.60;91.50;;;;;;5014926;28;20467;-78
2021/05/04 08:02:25;;;;;;;1.50;1.00;;;11.60;91.10;;;;;;5005841;28;20491;-78
2021/05/04 08:04:51;;;;;;;1.50;1.10;;;11.70;90.60;;;;;;5011896;28;20480;-80
2021/05/04 08:07:18;;;;;;;1.50;1.00;;;11.70;90.90;;;;;;5004063;28;20821;-78
2021/05/04 08:09:44;;;;;;;1.50;1.00;;;11.80;92.40;;;;;;5008802;28;20468;-80
2021/05/04 08:12:12;;;;;;;1.50;1.17;;;11.80;92.80;;;;;;5001108;28;20541;-79
2021/05/04 08:14:38;;;;;;;1.47;1.00;;;11.90;92.60;;;;;;5008211;28;20973;-77
2021/05/04 08:17:10;;;;;;;1.50;1.00;;;12.00;91.80;;;;;;5002957;28;20766;-78
2021/05/04 08:19:36;;;;;;;1.50;1.00;;;12.00;92.10;;;;;;5006878;28;20727;-78
2021/05/04 08:22:03;;;;;;;1.50;1.00;;;12.10;92.20;;;;;;5001560;28;20486;-81
2021/05/04 08:24:29;;;;;;;1.50;1.00;;;12.10;91.70;;;;;;5004870;28;21039;-80
2021/05/04 08:26:55;;;;;;;1.50;1.10;;;12.10;92.40;;;;;;5002979;28;20487;-79
2021/05/04 08:29:22;;;;;;;1.50;1.00;;;12.10;93.30;;;;;;5005509;28;20618;-77
2021/05/04 08:31:49;;;;;;;1.50;1.10;;;12.00;94.20;;;;;;4993592;28;20495;-77
2021/05/04 08:34:15;;;;;;;1.50;1.00;;;11.90;95.20;;;;;;4999900;28;20962;-78
2021/05/04 08:36:42;;;;;;;1.50;1.00;;;11.80;96.50;;;;;;4996524;28;20487;-79
2021/05/04 08:39:08;;;;;;;1.50;1.00;;;11.70;97.60;;;;;;5006046;28;20460;-79
2021/05/04 08:41:35;;;;;;;1.50;1.10;;;11.60;98.20;;;;;;4996967;28;20563;-77
2021/05/04 08:44:02;;;;;;;1.50;1.00;;;11.60;98.20;;;;;;5012165;28;20459;-77
2021/05/04 08:46:34;;;;;;;1.50;1.00;;;11.60;98.20;;;;;;4993824;28;20514;-79
2021/05/04 08:49:01;;;;;;;1.50;1.00;;;11.60;98.20;;;;;;5010722;28;20954;-79
2021/05/04 08:51:28;;;;;;;1.50;1.00;;;11.70;98.00;;;;;;4997677;28;20710;-79
2021/05/04 08:53:54;;;;;;;1.50;1.00;;;11.80;98.20;;;;;;5013634;28;20467;-78
2021/05/04 08:56:21;;;;;;;1.50;1.00;;;11.90;98.10;;;;;;5005388;28;20505;-78
2021/05/04 08:58:47;;;;;;;1.50;1.00;;;12.00;97.60;;;;;;5016916;28;20464;-78
2021/05/04 09:01:13;;;;;;;1.50;1.00;;;12.10;96.80;;;;;;4993439;28;21047;-77
2021/05/04 09:03:45;;;;;;;1.50;1.00;;;12.10;97.40;;;;;;5015638;28;20493;-76
2021/05/04 09:06:15;;;;;;;1.50;1.00;;;12.20;96.60;;;;;;4996983;28;20553;-79
2021/05/04 09:08:45;;;;;;;1.50;1.00;;;12.20;96.40;;;;;;5017747;28;20472;-79
2021/05/04 09:11:28;;;;;;;1.47;1.00;;;12.20;96.20;;;;;;4993956;28;20497;-78
2021/05/04 09:14:01;;;;;;;1.50;1.00;;;12.30;94.90;;;;;;5015186;28;20499;-77
2021/05/04 09:16:35;;;;;;;1.50;1.00;;;12.20;94.00;;;;;;4998153;28;20483;-77
2021/05/04 09:19:14;;;;;;;1.50;1.00;;;12.20;94.10;;;;;;5017849;28;21086;-78
2021/05/04 09:21:42;;;;;;;1.50;1.00;;;12.20;93.90;;;;;;5000021;28;20484;-78
2021/05/04 09:24:24;;;;;;;1.50;1.00;;;12.20;93.60;;;;;;5007468;28;20534;-78
2021/05/04 09:26:58;;;;;;;1.50;1.00;;;12.30;93.80;;;;;;4997688;28;20490;-77
2021/05/04 09:29:29;;;;;;;1.50;1.00;;;12.30;94.00;;;;;;5010817;28;20464;-78
2021/05/04 09:32:11;;;;;;;1.50;1.00;;;12.40;93.80;;;;;;4989340;28;20484;-77
2021/05/04 09:34:45;;;;;;;1.50;1.00;;;12.40;94.10;;;;;;4998985;28;20516;-75
2021/05/04 09:37:26;;;;;;;1.50;1.00;;;12.60;92.80;;;;;;5004877;28;20484;-76
2021/05/04 09:39:53;;;;;;;1.43;1.00;;;12.90;91.70;;;;;;5001546;28;20918;-77
2021/05/04 09:42:20;;;;;;;1.50;1.00;;;13.00;91.00;;;;;;5000935;28;20801;-77
2021/05/04 09:44:47;;;;;;;1.47;1.00;;;13.00;91.20;;;;;;5003605;28;20500;-78
2021/05/04 09:47:20;;;;;;;1.47;0.90;;;13.10;90.60;;;;;;4987590;28;20885;-78
2021/05/04 09:49:47;;;;;;;1.50;1.00;;;13.10;91.00;;;;;;5002732;28;20465;-78
2021/05/04 09:52:24;;;;;;;1.43;1.00;;;13.10;90.50;;;;;;5004434;28;20491;-78
2021/05/04 09:54:51;;;;;;;1.50;1.10;;;13.10;91.00;;;;;;5003004;28;20494;-77
2021/05/04 09:57:34;;;;;;;1.50;1.00;;;13.00;92.70;;;;;;5006043;28;20483;-76
2021/05/04 10:00:01;;;;;;;1.50;1.03;;;12.80;93.20;;;;;;4999549;28;20979;-77
2021/05/04 10:02:28;;;;;;;5.33;4.83;;;12.60;95.00;;;;;;5005827;28;20570;-77
2021/05/04 10:04:55;;;;;;;1.47;0.90;;;12.40;96.50;;;;;;5004754;28;20960;-76
2021/05/04 10:07:22;;;;;;;1.50;0.97;;;12.20;98.20;;;;;;5003188;28;20552;-75
2021/05/04 10:09:49;;;;;;;1.50;1.03;;;12.00;98.20;;;;;;5001256;28;20523;-79
2021/05/04 10:12:18;;;;;;;1.50;1.07;;;12.00;98.20;;;;;;4995224;28;20484;-79
2021/05/04 10:14:46;;;;;;;1.60;1.30;;;12.00;98.20;;;;;;5003534;28;20507;-77
2021/05/04 10:17:15;;;;;;;1.50;1.00;;;12.00;98.20;;;;;;5002642;28;20491;-77
2021/05/04 10:19:42;;;;;;;1.50;1.00;;;12.00;98.20;;;;;;5001910;28;20512;-77
2021/05/04 10:22:10;;;;;;;1.50;1.00;;;12.00;98.20;;;;;;5005335;28;20482;-78
2021/05/04 10:24:39;;;;;;;1.50;0.90;;;12.10;98.20;;;;;;5001285;28;20503;-78
2021/05/04 10:27:07;;;;;;;1.50;1.00;;;12.50;98.20;;;;;;4997250;28;20563;-77
2021/05/04 10:29:35;;;;;;;1.50;1.00;;;12.90;98.20;;;;;;5005325;28;20464;-77
2021/05/04 10:32:02;;;;;;;1.50;1.00;;;13.10;98.20;;;;;;4995574;28;20570;-78
2021/05/04 10:34:31;;;;;;;1.50;1.00;;;13.20;98.20;;;;;;5007207;28;20574;-78
2021/05/04 10:36:58;;;;;;;1.50;1.00;;;13.20;98.20;;;;;;5003097;28;20975;-81
2021/05/04 10:39:40;;;;;;;1.50;0.97;;;13.10;98.20;;;;;;5007790;28;20610;-78
2021/05/04 10:42:08;;;;;;;1.83;1.70;;;13.10;98.20;;;;;;5000254;28;20582;-78
2021/05/04 10:45:21;;;;;;;1.50;1.00;;;13.10;98.20;;;;;;5009779;28;20533;-79
2021/05/04 10:47:49;;;;;;;1.50;1.00;;;13.20;98.20;;;;;;5004349;28;20483;-78
2021/05/04 10:50:23;;;;;;;1.50;1.00;;;13.50;98.20;;;;;;5001738;28;20707;-78
2021/05/04 10:53:02;;;;;;;1.50;1.10;;;13.70;97.50;;;;;;5007092;28;20486;-80
2021/05/04 10:56:02;;;;;;;1.50;0.90;;;14.10;96.60;;;;;;4997435;28;20513;-79
2021/05/04 10:58:42;;;;;;;1.50;1.00;;;14.50;96.90;;;;;;4993208;28;21022;-80
2021/05/04 11:01:08;;;;;;;1.50;0.90;;;14.70;92.70;;;;;;4995103;28;20478;-80
2021/05/04 11:03:46;;;;;;;1.50;0.90;;;14.70;91.50;;;;;;5010001;28;20929;-80
2021/05/04 11:06:13;;;;;;;1.50;1.00;;;14.70;90.60;;;;;;5000077;28;20578;-79
2021/05/04 11:09:09;;;;;;;1.50;1.00;;;14.60;88.70;;;;;;5009680;28;20493;-79
2021/05/04 11:11:40;;;;;;;1.47;0.90;;;14.40;87.30;;;;;;5000443;28;20491;-78
2021/05/04 11:14:18;;;;;;;1.50;0.93;;;14.30;87.90;;;;;;5007530;28;20461;-81
2021/05/04 11:16:47;;;;;;;1.50;0.90;;;14.20;87.90;;;;;;5001410;28;20489;-79
2021/05/04 11:19:16;;;;;;;1.47;0.90;;;14.10;87.10;;;;;;5010855;28;20460;-79
2021/05/04 11:21:45;;;;;;;1.40;0.90;;;14.10;87.50;;;;;;4996597;28;20570;-77
2021/05/04 11:24:12;;;;;;;1.50;1.00;;;14.10;87.00;;;;;;5010601;28;20464;-78
2021/05/04 11:26:47;;;;;;;1.40;0.90;;;14.10;84.60;;;;;;4995269;28;20487;-77
2021/05/04 11:29:15;;;;;;;1.50;0.90;;;14.20;84.40;;;;;;5008791;28;20488;-78
2021/05/04 11:31:44;;;;;;;1.50;0.90;;;14.30;83.10;;;;;;4994948;28;20495;-77
2021/05/04 11:34:39;;;;;;;1.50;1.00;;;14.50;82.40;;;;;;5008104;28;20468;-78
2021/05/04 11:37:06;;;;;;;1.43;0.90;;;14.70;81.50;;;;;;5000617;28;20495;-77
2021/05/04 11:39:33;;;;;;;1.47;0.90;;;14.90;81.40;;;;;;5006767;28;20549;-78
2021/05/04 11:42:01;;;;;;;1.50;0.90;;;15.10;80.60;;;;;;5005170;28;20796;-77
2021/05/04 11:44:29;;;;;;;1.50;0.90;;;15.30;79.90;;;;;;5007169;28;20487;-76
2021/05/04 11:46:56;;;;;;;1.50;1.00;;;15.30;78.60;;;;;;5001157;28;20495;-78
2021/05/04 11:49:24;;;;;;;1.50;0.90;;;15.20;79.60;;;;;;5003781;28;20468;-81
2021/05/04 11:52:07;;;;;;;1.50;1.00;;;15.10;80.10;;;;;;4999537;28;20484;-77
2021/05/04 11:54:34;;;;;;;1.47;0.90;;;14.70;81.90;;;;;;5001749;28;20485;-78
2021/05/04 11:57:01;;;;;;;1.47;0.90;;;14.40;82.60;;;;;;5002289;28;20545;-77
2021/05/04 11:59:29;;;;;;;1.50;0.90;;;14.20;82.60;;;;;;5005299;28;21003;-77
2021/05/04 12:01:55;;;;;;;1.60;1.30;;;14.30;81.60;;;;;;4999631;28;20495;-79
2021/05/04 12:04:46;;;;;;;1.50;0.90;;;14.30;81.90;;;;;;5006941;28;20472;-77
2021/05/04 12:07:12;;;;;;;1.47;0.93;;;14.50;80.30;;;;;;5004129;28;20474;-76
2021/05/04 12:09:38;;;;;;;1.90;1.67;;;14.60;79.20;;;;;;5004701;28;21106;-77
2021/05/04 12:12:14;;;;;;;1.50;1.00;;;14.70;78.30;;;;;;4995032;28;20924;-77
2021/05/04 12:14:57;;;;;;;1.43;0.90;;;14.80;77.30;;;;;;4999422;28;20515;-76
2021/05/04 12:17:26;;;;;;;1.50;0.90;;;14.90;76.80;;;;;;5001474;28;20521;-77
2021/05/04 12:19:52;;;;;;;1.50;1.00;;;15.00;77.80;;;;;;4998627;28;20471;-77
2021/05/04 12:22:18;;;;;;;1.47;0.97;;;15.00;76.10;;;;;;5003056;28;20813;-75
2021/05/04 12:24:45;;;;;;;1.50;1.20;;;14.90;76.20;;;;;;5004822;28;20491;-77
2021/05/04 12:27:11;;;;;;;1.50;0.90;;;14.90;77.10;;;;;;5009948;28;20487;-78
2021/05/04 12:29:38;;;;;;;1.50;0.90;;;15.00;76.50;;;;;;5004283;28;20516;-78
2021/05/04 12:32:06;;;;;;;1.50;1.00;;;14.90;76.60;;;;;;5004592;28;20487;-79
2021/05/04 12:34:33;;;;;;;1.47;1.00;;;14.80;78.30;;;;;;5002158;28;20910;-80
2021/05/04 12:37:00;;;;;;;1.50;0.90;;;15.00;79.00;;;;;;5006324;28;20573;-77
2021/05/04 12:39:29;;;;;;;1.50;0.90;;;15.20;77.10;;;;;;5010184;28;21353;-78
2021/05/04 12:41:57;;;;;;;1.50;0.90;;;15.20;76.70;;;;;;5007109;28;20483;-76
2021/05/04 12:44:27;;;;;;;1.50;0.90;;;15.10;79.50;;;;;;5004504;28;20525;-78
2021/05/04 12:46:54;;;;;;;1.50;1.00;;;14.70;82.00;;;;;;5003703;28;20482;-77
2021/05/04 12:49:33;;;;;;;1.50;0.90;;;14.50;82.90;;;;;;5010195;28;20469;-78
2021/05/04 12:51:59;;;;;;;1.50;1.00;;;14.30;83.80;;;;;;5000740;28;20486;-78